sensor_id;sensor_type;location;lat;lon;timestamp;P1;durP1;ratioP1;P2;durP2;ratioP2
13085;SDS011;6609;49.882;8.664;2022-09-27T00:01:15;3.60;;;1.80;;
13085;SDS011;6609;49.882;8.664;2022-09-27T00:03:42;3.13;;;2.43;;
13085;SDS011;6609;49.882;8.664;2022-09-27T00:06:11;2.87;;;2.57;;
13085;SDS011;6609;49.882;8.664;2022-09-27T00:08:40;4.10;;;2.13;;
13085;SDS011;6609;49.882;8.664;2022-09-27T00:11:10;3.37;;;2.60;;
13085;SDS011;6609;49.882;8.664;2022-09-27T00:13:50;3.23;;;2.20;;
13085;SDS011;6609;49.882;8.664;2022-09-27T00:16:19;4.53;;;2.53;;
13085;SDS011;6609;49.882;8.664;2022-09-27T00:18:47;5.07;;;2.57;;
13085;SDS011;6609;49.882;8.664;2022-09-27T00:21:14;3.03;;;2.30;;
13085;SDS011;6609;49.882;8.664;2022-09-27T00:23:41;3.10;;;2.60;;
13085;SDS011;6609;49.882;8.664;2022-09-27T00:26:11;3.70;;;2.67;;
13085;SDS011;6609;49.882;8.664;2022-09-27T00:28:38;2.50;;;2.30;;
13085;SDS011;6609;49.882;8.664;2022-09-27T00:31:09;2.93;;;2.37;;
13085;SDS011;6609;49.882;8.664;2022-09-27T00:33:44;3.10;;;2.60;;
13085;SDS011;6609;49.882;8.664;2022-09-27T00:36:11;3.03;;;2.57;;
13085;SDS011;6609;49.882;8.664;2022-09-27T00:38:38;5.43;;;2.90;;
13085;SDS011;6609;49.882;8.664;2022-09-27T00:41:06;2.73;;;2.47;;
13085;SDS011;6609;49.882;8.664;2022-09-27T00:43:43;3.20;;;2.50;;
13085;SDS011;6609;49.882;8.664;2022-09-27T00:46:10;4.57;;;2.73;;
13085;SDS011;6609;49.882;8.664;2022-09-27T00:48:39;2.70;;;2.40;;
13085;SDS011;6609;49.882;8.664;2022-09-27T00:51:06;4.37;;;2.83;;
13085;SDS011;6609;49.882;8.664;2022-09-27T00:53:36;2.70;;;2.40;;
13085;SDS011;6609;49.882;8.664;2022-09-27T00:56:07;3.93;;;2.80;;
13085;SDS011;6609;49.882;8.664;2022-09-27T00:58:38;2.80;;;2.20;;
13085;SDS011;6609;49.882;8.664;2022-09-27T01:01:08;2.40;;;2.20;;
13085;SDS011;6609;49.882;8.664;2022-09-27T01:03:39;2.47;;;2.27;;
13085;SDS011;6609;49.882;8.664;2022-09-27T01:06:11;2.43;;;2.23;;
13085;SDS011;6609;49.882;8.664;2022-09-27T01:08:38;2.40;;;2.20;;
13085;SDS011;6609;49.882;8.664;2022-09-27T01:11:10;5.43;;;2.83;;
13085;SDS011;6609;49.882;8.664;2022-09-27T01:13:41;3.80;;;2.80;;
13085;SDS011;6609;49.882;8.664;2022-09-27T01:16:11;3.40;;;3.10;;
13085;SDS011;6609;49.882;8.664;2022-09-27T01:18:50;3.00;;;2.43;;
13085;SDS011;6609;49.882;8.664;2022-09-27T01:21:43;3.00;;;2.70;;
13085;SDS011;6609;49.882;8.664;2022-09-27T01:24:27;4.23;;;2.60;;
13085;SDS011;6609;49.882;8.664;2022-09-27T01:30:23;2.57;;;2.37;;
13085;SDS011;6609;49.882;8.664;2022-09-27T01:32:54;5.07;;;2.33;;
13085;SDS011;6609;49.882;8.664;2022-09-27T01:35:33;3.63;;;2.40;;
13085;SDS011;6609;49.882;8.664;2022-09-27T01:38:12;2.70;;;2.20;;
13085;SDS011;6609;49.882;8.664;2022-09-27T01:40:45;3.80;;;2.23;;
13085;SDS011;6609;49.882;8.664;2022-09-27T01:43:20;4.00;;;2.50;;
13085;SDS011;6609;49.882;8.664;2022-09-27T01:45:54;2.33;;;2.13;;
13085;SDS011;6609;49.882;8.664;2022-09-27T01:48:24;2.30;;;2.10;;
13085;SDS011;6609;49.882;8.664;2022-09-27T01:50:57;3.57;;;2.13;;
13085;SDS011;6609;49.882;8.664;2022-09-27T01:53:29;2.60;;;1.70;;
13085;SDS011;6609;49.882;8.664;2022-09-27T01:55:59;3.80;;;1.90;;
13085;SDS011;6609;49.882;8.664;2022-09-27T01:58:27;3.20;;;1.70;;
13085;SDS011;6609;49.882;8.664;2022-09-27T02:00:57;4.33;;;2.30;;
13085;SDS011;6609;49.882;8.664;2022-09-27T02:03:26;3.00;;;2.23;;
13085;SDS011;6609;49.882;8.664;2022-09-27T02:05:57;3.70;;;2.23;;
13085;SDS011;6609;49.882;8.664;2022-09-27T02:08:28;3.03;;;1.93;;
13085;SDS011;6609;49.882;8.664;2022-09-27T02:11:01;4.67;;;1.83;;
13085;SDS011;6609;49.882;8.664;2022-09-27T02:13:36;2.90;;;1.90;;
13085;SDS011;6609;49.882;8.664;2022-09-27T02:16:11;2.17;;;1.60;;
13085;SDS011;6609;49.882;8.664;2022-09-27T02:18:48;4.40;;;2.13;;
13085;SDS011;6609;49.882;8.664;2022-09-27T02:21:16;4.13;;;1.77;;
13085;SDS011;6609;49.882;8.664;2022-09-27T02:23:46;2.23;;;1.80;;
13085;SDS011;6609;49.882;8.664;2022-09-27T02:26:15;2.23;;;1.93;;
13085;SDS011;6609;49.882;8.664;2022-09-27T02:28:44;2.73;;;1.80;;
13085;SDS011;6609;49.882;8.664;2022-09-27T02:31:18;2.27;;;1.70;;
13085;SDS011;6609;49.882;8.664;2022-09-27T02:33:46;2.77;;;1.70;;
13085;SDS011;6609;49.882;8.664;2022-09-27T02:36:16;2.10;;;1.60;;
13085;SDS011;6609;49.882;8.664;2022-09-27T02:38:44;1.63;;;1.50;;
13085;SDS011;6609;49.882;8.664;2022-09-27T02:41:12;3.07;;;1.50;;
13085;SDS011;6609;49.882;8.664;2022-09-27T02:43:40;3.97;;;1.67;;
13085;SDS011;6609;49.882;8.664;2022-09-27T02:46:14;2.80;;;2.03;;
13085;SDS011;6609;49.882;8.664;2022-09-27T02:48:47;6.60;;;2.00;;
13085;SDS011;6609;49.882;8.664;2022-09-27T02:51:27;2.37;;;2.00;;
13085;SDS011;6609;49.882;8.664;2022-09-27T02:54:00;3.23;;;2.50;;
13085;SDS011;6609;49.882;8.664;2022-09-27T02:56:31;1.93;;;1.73;;
13085;SDS011;6609;49.882;8.664;2022-09-27T02:59:06;3.77;;;1.87;;
13085;SDS011;6609;49.882;8.664;2022-09-27T03:01:40;4.07;;;1.97;;
13085;SDS011;6609;49.882;8.664;2022-09-27T03:04:16;2.83;;;1.67;;
13085;SDS011;6609;49.882;8.664;2022-09-27T03:06:45;5.80;;;1.93;;
13085;SDS011;6609;49.882;8.664;2022-09-27T03:09:13;1.70;;;1.23;;
13085;SDS011;6609;49.882;8.664;2022-09-27T03:11:43;2.97;;;1.63;;
13085;SDS011;6609;49.882;8.664;2022-09-27T03:14:10;1.30;;;1.10;;
13085;SDS011;6609;49.882;8.664;2022-09-27T03:16:37;2.83;;;1.60;;
13085;SDS011;6609;49.882;8.664;2022-09-27T03:19:04;7.30;;;1.73;;
13085;SDS011;6609;49.882;8.664;2022-09-27T03:21:32;3.70;;;1.40;;
13085;SDS011;6609;49.882;8.664;2022-09-27T03:23:59;2.67;;;1.47;;
13085;SDS011;6609;49.882;8.664;2022-09-27T03:26:26;6.63;;;1.50;;
13085;SDS011;6609;49.882;8.664;2022-09-27T03:28:54;1.30;;;1.20;;
13085;SDS011;6609;49.882;8.664;2022-09-27T03:31:20;1.90;;;1.20;;
13085;SDS011;6609;49.882;8.664;2022-09-27T03:33:47;2.77;;;0.90;;
13085;SDS011;6609;49.882;8.664;2022-09-27T03:36:14;3.83;;;1.47;;
13085;SDS011;6609;49.882;8.664;2022-09-27T03:38:43;1.73;;;1.00;;
13085;SDS011;6609;49.882;8.664;2022-09-27T03:41:09;1.23;;;1.00;;
13085;SDS011;6609;49.882;8.664;2022-09-27T03:43:36;4.90;;;0.90;;
13085;SDS011;6609;49.882;8.664;2022-09-27T03:46:03;1.77;;;0.90;;
13085;SDS011;6609;49.882;8.664;2022-09-27T03:48:30;5.37;;;1.20;;
13085;SDS011;6609;49.882;8.664;2022-09-27T03:50:57;2.07;;;0.87;;
13085;SDS011;6609;49.882;8.664;2022-09-27T03:53:24;2.23;;;0.80;;
13085;SDS011;6609;49.882;8.664;2022-09-27T03:55:53;1.67;;;0.97;;
13085;SDS011;6609;49.882;8.664;2022-09-27T03:58:19;1.03;;;0.80;;
13085;SDS011;6609;49.882;8.664;2022-09-27T04:00:46;2.57;;;0.93;;
13085;SDS011;6609;49.882;8.664;2022-09-27T04:03:14;3.30;;;0.83;;
13085;SDS011;6609;49.882;8.664;2022-09-27T04:05:43;2.60;;;1.00;;
13085;SDS011;6609;49.882;8.664;2022-09-27T04:08:10;4.53;;;0.93;;
13085;SDS011;6609;49.882;8.664;2022-09-27T04:10:38;3.60;;;1.00;;
13085;SDS011;6609;49.882;8.664;2022-09-27T04:13:06;3.27;;;1.10;;
13085;SDS011;6609;49.882;8.664;2022-09-27T04:15:33;2.23;;;0.90;;
13085;SDS011;6609;49.882;8.664;2022-09-27T04:18:00;2.03;;;0.80;;
13085;SDS011;6609;49.882;8.664;2022-09-27T04:20:27;0.97;;;0.80;;
13085;SDS011;6609;49.882;8.664;2022-09-27T04:22:54;0.83;;;0.70;;
13085;SDS011;6609;49.882;8.664;2022-09-27T04:25:21;3.90;;;0.70;;
13085;SDS011;6609;49.882;8.664;2022-09-27T04:27:48;1.17;;;0.60;;
13085;SDS011;6609;49.882;8.664;2022-09-27T04:30:20;0.90;;;0.50;;
13085;SDS011;6609;49.882;8.664;2022-09-27T04:32:47;0.80;;;0.60;;
13085;SDS011;6609;49.882;8.664;2022-09-27T04:35:14;1.23;;;0.60;;
13085;SDS011;6609;49.882;8.664;2022-09-27T04:37:59;1.17;;;0.63;;
13085;SDS011;6609;49.882;8.664;2022-09-27T04:40:26;2.30;;;0.77;;
13085;SDS011;6609;49.882;8.664;2022-09-27T04:42:54;2.27;;;0.90;;
13085;SDS011;6609;49.882;8.664;2022-09-27T04:45:22;0.67;;;0.63;;
13085;SDS011;6609;49.882;8.664;2022-09-27T04:47:49;1.00;;;0.60;;
13085;SDS011;6609;49.882;8.664;2022-09-27T04:50:17;1.70;;;1.10;;
13085;SDS011;6609;49.882;8.664;2022-09-27T04:52:48;1.73;;;0.80;;
13085;SDS011;6609;49.882;8.664;2022-09-27T04:55:15;4.17;;;0.87;;
13085;SDS011;6609;49.882;8.664;2022-09-27T04:57:42;1.27;;;0.67;;
13085;SDS011;6609;49.882;8.664;2022-09-27T05:00:10;2.80;;;0.90;;
13085;SDS011;6609;49.882;8.664;2022-09-27T05:02:39;1.10;;;1.00;;
13085;SDS011;6609;49.882;8.664;2022-09-27T05:05:06;0.87;;;0.73;;
13085;SDS011;6609;49.882;8.664;2022-09-27T05:07:34;1.00;;;0.80;;
13085;SDS011;6609;49.882;8.664;2022-09-27T05:10:01;1.30;;;0.70;;
13085;SDS011;6609;49.882;8.664;2022-09-27T05:12:28;2.10;;;0.93;;
13085;SDS011;6609;49.882;8.664;2022-09-27T05:14:55;2.57;;;0.63;;
13085;SDS011;6609;49.882;8.664;2022-09-27T05:17:23;1.93;;;0.93;;
13085;SDS011;6609;49.882;8.664;2022-09-27T05:19:51;1.27;;;0.60;;
13085;SDS011;6609;49.882;8.664;2022-09-27T05:22:18;2.77;;;0.67;;
13085;SDS011;6609;49.882;8.664;2022-09-27T05:24:46;2.97;;;0.70;;
13085;SDS011;6609;49.882;8.664;2022-09-27T05:27:13;1.00;;;0.90;;
13085;SDS011;6609;49.882;8.664;2022-09-27T05:29:42;1.37;;;0.60;;
13085;SDS011;6609;49.882;8.664;2022-09-27T05:32:09;2.67;;;0.70;;
13085;SDS011;6609;49.882;8.664;2022-09-27T05:34:36;1.30;;;0.77;;
13085;SDS011;6609;49.882;8.664;2022-09-27T05:37:06;1.70;;;0.70;;
13085;SDS011;6609;49.882;8.664;2022-09-27T05:39:33;1.83;;;0.80;;
13085;SDS011;6609;49.882;8.664;2022-09-27T05:42:00;1.47;;;0.63;;
13085;SDS011;6609;49.882;8.664;2022-09-27T05:44:28;1.70;;;0.77;;
13085;SDS011;6609;49.882;8.664;2022-09-27T05:46:56;1.53;;;0.50;;
13085;SDS011;6609;49.882;8.664;2022-09-27T05:49:25;1.90;;;0.70;;
13085;SDS011;6609;49.882;8.664;2022-09-27T05:51:52;0.70;;;0.67;;
13085;SDS011;6609;49.882;8.664;2022-09-27T05:54:20;1.10;;;0.73;;
13085;SDS011;6609;49.882;8.664;2022-09-27T05:56:47;1.70;;;0.70;;
13085;SDS011;6609;49.882;8.664;2022-09-27T05:59:15;2.07;;;0.80;;
13085;SDS011;6609;49.882;8.664;2022-09-27T06:01:42;1.03;;;0.60;;
13085;SDS011;6609;49.882;8.664;2022-09-27T06:04:09;0.40;;;0.40;;
13085;SDS011;6609;49.882;8.664;2022-09-27T06:06:36;0.93;;;0.70;;
13085;SDS011;6609;49.882;8.664;2022-09-27T06:09:03;0.97;;;0.77;;
13085;SDS011;6609;49.882;8.664;2022-09-27T06:11:31;1.93;;;0.80;;
13085;SDS011;6609;49.882;8.664;2022-09-27T06:13:58;2.30;;;0.70;;
13085;SDS011;6609;49.882;8.664;2022-09-27T06:16:26;0.90;;;0.70;;
13085;SDS011;6609;49.882;8.664;2022-09-27T06:18:53;1.27;;;1.00;;
13085;SDS011;6609;49.882;8.664;2022-09-27T06:21:20;2.70;;;1.10;;
13085;SDS011;6609;49.882;8.664;2022-09-27T06:23:47;1.03;;;0.50;;
13085;SDS011;6609;49.882;8.664;2022-09-27T06:26:15;1.17;;;0.60;;
13085;SDS011;6609;49.882;8.664;2022-09-27T06:28:43;0.77;;;0.50;;
13085;SDS011;6609;49.882;8.664;2022-09-27T06:31:11;1.43;;;0.53;;
13085;SDS011;6609;49.882;8.664;2022-09-27T06:33:39;2.30;;;0.80;;
13085;SDS011;6609;49.882;8.664;2022-09-27T06:36:06;2.00;;;0.73;;
13085;SDS011;6609;49.882;8.664;2022-09-27T06:38:34;2.40;;;0.90;;
13085;SDS011;6609;49.882;8.664;2022-09-27T06:41:02;0.50;;;0.50;;
13085;SDS011;6609;49.882;8.664;2022-09-27T06:43:30;1.07;;;0.53;;
13085;SDS011;6609;49.882;8.664;2022-09-27T06:45:59;1.97;;;0.60;;
13085;SDS011;6609;49.882;8.664;2022-09-27T06:48:30;1.23;;;0.67;;
13085;SDS011;6609;49.882;8.664;2022-09-27T06:50:57;3.13;;;0.73;;
13085;SDS011;6609;49.882;8.664;2022-09-27T06:53:24;1.77;;;0.40;;
13085;SDS011;6609;49.882;8.664;2022-09-27T06:55:56;0.70;;;0.70;;
13085;SDS011;6609;49.882;8.664;2022-09-27T06:58:23;0.60;;;0.60;;
13085;SDS011;6609;49.882;8.664;2022-09-27T07:01:09;1.27;;;0.43;;
13085;SDS011;6609;49.882;8.664;2022-09-27T07:03:36;1.07;;;0.60;;
13085;SDS011;6609;49.882;8.664;2022-09-27T07:06:06;2.10;;;0.40;;
13085;SDS011;6609;49.882;8.664;2022-09-27T07:08:33;1.07;;;0.70;;
13085;SDS011;6609;49.882;8.664;2022-09-27T07:11:01;0.53;;;0.50;;
13085;SDS011;6609;49.882;8.664;2022-09-27T07:13:29;1.23;;;0.60;;
13085;SDS011;6609;49.882;8.664;2022-09-27T07:15:56;0.80;;;0.50;;
13085;SDS011;6609;49.882;8.664;2022-09-27T07:18:25;2.20;;;0.60;;
13085;SDS011;6609;49.882;8.664;2022-09-27T07:20:52;1.63;;;0.50;;
13085;SDS011;6609;49.882;8.664;2022-09-27T07:23:19;0.97;;;0.40;;
13085;SDS011;6609;49.882;8.664;2022-09-27T07:25:46;0.87;;;0.63;;
13085;SDS011;6609;49.882;8.664;2022-09-27T07:28:13;1.97;;;0.47;;
13085;SDS011;6609;49.882;8.664;2022-09-27T07:30:41;0.60;;;0.60;;
13085;SDS011;6609;49.882;8.664;2022-09-27T07:33:08;2.83;;;0.60;;
13085;SDS011;6609;49.882;8.664;2022-09-27T07:35:38;1.80;;;0.50;;
13085;SDS011;6609;49.882;8.664;2022-09-27T07:38:08;1.40;;;0.40;;
13085;SDS011;6609;49.882;8.664;2022-09-27T07:40:37;0.77;;;0.60;;
13085;SDS011;6609;49.882;8.664;2022-09-27T07:43:04;0.97;;;0.60;;
13085;SDS011;6609;49.882;8.664;2022-09-27T07:45:32;0.90;;;0.60;;
13085;SDS011;6609;49.882;8.664;2022-09-27T07:47:59;1.13;;;0.40;;
13085;SDS011;6609;49.882;8.664;2022-09-27T07:50:26;0.83;;;0.60;;
13085;SDS011;6609;49.882;8.664;2022-09-27T07:52:55;0.40;;;0.40;;
13085;SDS011;6609;49.882;8.664;2022-09-27T07:55:22;0.70;;;0.30;;
13085;SDS011;6609;49.882;8.664;2022-09-27T07:57:49;0.50;;;0.50;;
13085;SDS011;6609;49.882;8.664;2022-09-27T08:00:18;0.77;;;0.50;;
13085;SDS011;6609;49.882;8.664;2022-09-27T08:02:45;0.53;;;0.40;;
13085;SDS011;6609;49.882;8.664;2022-09-27T08:05:12;1.60;;;0.50;;
13085;SDS011;6609;49.882;8.664;2022-09-27T08:07:39;0.40;;;0.40;;
13085;SDS011;6609;49.882;8.664;2022-09-27T08:10:08;2.10;;;0.60;;
13085;SDS011;6609;49.882;8.664;2022-09-27T08:12:35;2.13;;;0.43;;
13085;SDS011;6609;49.882;8.664;2022-09-27T08:15:02;2.73;;;0.73;;
13085;SDS011;6609;49.882;8.664;2022-09-27T08:17:29;0.70;;;0.60;;
13085;SDS011;6609;49.882;8.664;2022-09-27T08:19:57;2.50;;;0.50;;
13085;SDS011;6609;49.882;8.664;2022-09-27T08:22:27;0.73;;;0.50;;
13085;SDS011;6609;49.882;8.664;2022-09-27T08:24:54;0.67;;;0.40;;
13085;SDS011;6609;49.882;8.664;2022-09-27T08:27:23;2.17;;;0.50;;
13085;SDS011;6609;49.882;8.664;2022-09-27T08:29:50;2.47;;;0.43;;
13085;SDS011;6609;49.882;8.664;2022-09-27T08:32:17;1.20;;;0.40;;
13085;SDS011;6609;49.882;8.664;2022-09-27T08:34:44;1.67;;;0.40;;
13085;SDS011;6609;49.882;8.664;2022-09-27T08:37:11;2.97;;;0.60;;
13085;SDS011;6609;49.882;8.664;2022-09-27T08:39:38;0.57;;;0.57;;
13085;SDS011;6609;49.882;8.664;2022-09-27T08:42:09;1.40;;;0.50;;
13085;SDS011;6609;49.882;8.664;2022-09-27T08:44:46;0.30;;;0.30;;
13085;SDS011;6609;49.882;8.664;2022-09-27T08:47:20;0.27;;;0.20;;
13085;SDS011;6609;49.882;8.664;2022-09-27T08:49:51;0.63;;;0.40;;
13085;SDS011;6609;49.882;8.664;2022-09-27T08:52:24;1.10;;;0.40;;
13085;SDS011;6609;49.882;8.664;2022-09-27T08:54:54;0.40;;;0.40;;
13085;SDS011;6609;49.882;8.664;2022-09-27T08:57:21;0.83;;;0.50;;
13085;SDS011;6609;49.882;8.664;2022-09-27T08:59:54;1.43;;;0.40;;
13085;SDS011;6609;49.882;8.664;2022-09-27T09:02:25;1.17;;;0.50;;
13085;SDS011;6609;49.882;8.664;2022-09-27T09:04:52;0.40;;;0.30;;
13085;SDS011;6609;49.882;8.664;2022-09-27T09:07:25;0.33;;;0.33;;
13085;SDS011;6609;49.882;8.664;2022-09-27T09:10:14;1.10;;;0.53;;
13085;SDS011;6609;49.882;8.664;2022-09-27T09:13:11;2.00;;;0.40;;
13085;SDS011;6609;49.882;8.664;2022-09-27T09:15:46;1.60;;;0.63;;
13085;SDS011;6609;49.882;8.664;2022-09-27T09:18:26;2.23;;;0.60;;
13085;SDS011;6609;49.882;8.664;2022-09-27T09:21:02;2.90;;;0.47;;
13085;SDS011;6609;49.882;8.664;2022-09-27T09:23:41;0.80;;;0.40;;
13085;SDS011;6609;49.882;8.664;2022-09-27T09:26:31;0.70;;;0.40;;
13085;SDS011;6609;49.882;8.664;2022-09-27T09:29:05;0.93;;;0.47;;
13085;SDS011;6609;49.882;8.664;2022-09-27T09:31:41;1.67;;;0.50;;
13085;SDS011;6609;49.882;8.664;2022-09-27T09:34:09;0.97;;;0.40;;
13085;SDS011;6609;49.882;8.664;2022-09-27T09:36:40;1.97;;;0.40;;
13085;SDS011;6609;49.882;8.664;2022-09-27T09:39:11;0.83;;;0.30;;
13085;SDS011;6609;49.882;8.664;2022-09-27T09:41:42;0.33;;;0.20;;
13085;SDS011;6609;49.882;8.664;2022-09-27T09:44:22;0.63;;;0.40;;
13085;SDS011;6609;49.882;8.664;2022-09-27T09:46:54;1.00;;;0.30;;
13085;SDS011;6609;49.882;8.664;2022-09-27T09:49:25;2.40;;;0.50;;
13085;SDS011;6609;49.882;8.664;2022-09-27T09:51:55;4.90;;;0.50;;
13085;SDS011;6609;49.882;8.664;2022-09-27T09:54:28;1.07;;;0.50;;
13085;SDS011;6609;49.882;8.664;2022-09-27T09:56:59;2.03;;;0.60;;
13085;SDS011;6609;49.882;8.664;2022-09-27T09:59:33;1.03;;;0.50;;
13085;SDS011;6609;49.882;8.664;2022-09-27T10:02:13;0.67;;;0.40;;
13085;SDS011;6609;49.882;8.664;2022-09-27T10:04:46;1.73;;;0.57;;
13085;SDS011;6609;49.882;8.664;2022-09-27T10:07:13;3.47;;;0.60;;
13085;SDS011;6609;49.882;8.664;2022-09-27T10:09:44;1.03;;;0.50;;
13085;SDS011;6609;49.882;8.664;2022-09-27T10:12:11;0.47;;;0.40;;
13085;SDS011;6609;49.882;8.664;2022-09-27T10:14:38;3.30;;;0.60;;
13085;SDS011;6609;49.882;8.664;2022-09-27T10:17:09;0.63;;;0.30;;
13085;SDS011;6609;49.882;8.664;2022-09-27T10:19:41;1.70;;;0.60;;
13085;SDS011;6609;49.882;8.664;2022-09-27T10:22:10;1.57;;;0.50;;
13085;SDS011;6609;49.882;8.664;2022-09-27T10:24:51;0.63;;;0.60;;
13085;SDS011;6609;49.882;8.664;2022-09-27T10:27:19;0.60;;;0.60;;
13085;SDS011;6609;49.882;8.664;2022-09-27T10:29:46;0.40;;;0.40;;
13085;SDS011;6609;49.882;8.664;2022-09-27T10:32:23;1.10;;;0.43;;
13085;SDS011;6609;49.882;8.664;2022-09-27T10:34:54;0.87;;;0.50;;
13085;SDS011;6609;49.882;8.664;2022-09-27T10:37:22;0.77;;;0.40;;
13085;SDS011;6609;49.882;8.664;2022-09-27T10:39:49;0.67;;;0.57;;
13085;SDS011;6609;49.882;8.664;2022-09-27T10:42:21;0.80;;;0.60;;
13085;SDS011;6609;49.882;8.664;2022-09-27T10:44:57;0.23;;;0.23;;
13085;SDS011;6609;49.882;8.664;2022-09-27T10:47:26;1.43;;;0.50;;
13085;SDS011;6609;49.882;8.664;2022-09-27T10:50:01;0.17;;;0.17;;
13085;SDS011;6609;49.882;8.664;2022-09-27T10:52:29;2.60;;;0.47;;
13085;SDS011;6609;49.882;8.664;2022-09-27T10:54:56;1.10;;;0.50;;
13085;SDS011;6609;49.882;8.664;2022-09-27T10:57:25;1.53;;;0.30;;
13085;SDS011;6609;49.882;8.664;2022-09-27T10:59:54;1.07;;;0.60;;
13085;SDS011;6609;49.882;8.664;2022-09-27T11:02:23;0.43;;;0.30;;
13085;SDS011;6609;49.882;8.664;2022-09-27T11:05:02;0.87;;;0.60;;
13085;SDS011;6609;49.882;8.664;2022-09-27T11:07:29;2.10;;;0.50;;
13085;SDS011;6609;49.882;8.664;2022-09-27T11:09:57;0.30;;;0.30;;
13085;SDS011;6609;49.882;8.664;2022-09-27T11:12:27;0.83;;;0.53;;
13085;SDS011;6609;49.882;8.664;2022-09-27T11:14:55;1.00;;;0.40;;
13085;SDS011;6609;49.882;8.664;2022-09-27T11:17:28;0.60;;;0.33;;
13085;SDS011;6609;49.882;8.664;2022-09-27T11:20:05;0.70;;;0.50;;
13085;SDS011;6609;49.882;8.664;2022-09-27T11:25:36;0.83;;;0.33;;
13085;SDS011;6609;49.882;8.664;2022-09-27T11:28:12;2.20;;;0.40;;
13085;SDS011;6609;49.882;8.664;2022-09-27T11:30:42;0.67;;;0.40;;
13085;SDS011;6609;49.882;8.664;2022-09-27T11:36:04;0.87;;;0.50;;
13085;SDS011;6609;49.882;8.664;2022-09-27T11:38:38;0.97;;;0.67;;
13085;SDS011;6609;49.882;8.664;2022-09-27T11:41:22;2.53;;;0.60;;
13085;SDS011;6609;49.882;8.664;2022-09-27T11:46:49;1.20;;;0.70;;
13085;SDS011;6609;49.882;8.664;2022-09-27T11:49:28;2.00;;;0.60;;
13085;SDS011;6609;49.882;8.664;2022-09-27T11:52:14;1.80;;;0.47;;
13085;SDS011;6609;49.882;8.664;2022-09-27T11:54:54;2.40;;;0.60;;
13085;SDS011;6609;49.882;8.664;2022-09-27T11:57:31;0.60;;;0.60;;
13085;SDS011;6609;49.882;8.664;2022-09-27T12:00:11;0.87;;;0.70;;
13085;SDS011;6609;49.882;8.664;2022-09-27T12:03:00;2.60;;;0.50;;
13085;SDS011;6609;49.882;8.664;2022-09-27T12:05:55;0.50;;;0.50;;
13085;SDS011;6609;49.882;8.664;2022-09-27T12:08:31;1.27;;;0.87;;
13085;SDS011;6609;49.882;8.664;2022-09-27T12:11:16;1.03;;;0.40;;
13085;SDS011;6609;49.882;8.664;2022-09-27T12:13:48;0.70;;;0.50;;
13085;SDS011;6609;49.882;8.664;2022-09-27T12:16:19;2.23;;;0.57;;
13085;SDS011;6609;49.882;8.664;2022-09-27T12:18:50;1.17;;;0.50;;
13085;SDS011;6609;49.882;8.664;2022-09-27T12:21:20;1.13;;;0.67;;
13085;SDS011;6609;49.882;8.664;2022-09-27T12:23:48;2.20;;;0.60;;
13085;SDS011;6609;49.882;8.664;2022-09-27T12:26:16;1.40;;;0.50;;
13085;SDS011;6609;49.882;8.664;2022-09-27T12:28:47;1.37;;;0.67;;
13085;SDS011;6609;49.882;8.664;2022-09-27T12:31:20;2.37;;;0.93;;
13085;SDS011;6609;49.882;8.664;2022-09-27T12:33:56;1.90;;;0.77;;
13085;SDS011;6609;49.882;8.664;2022-09-27T12:36:36;1.30;;;0.73;;
13085;SDS011;6609;49.882;8.664;2022-09-27T12:39:09;2.53;;;0.87;;
13085;SDS011;6609;49.882;8.664;2022-09-27T12:41:40;2.27;;;1.03;;
13085;SDS011;6609;49.882;8.664;2022-09-27T12:44:11;4.23;;;1.00;;
13085;SDS011;6609;49.882;8.664;2022-09-27T12:46:41;1.07;;;0.50;;
13085;SDS011;6609;49.882;8.664;2022-09-27T12:49:22;4.00;;;1.17;;
13085;SDS011;6609;49.882;8.664;2022-09-27T12:51:55;1.87;;;0.80;;
13085;SDS011;6609;49.882;8.664;2022-09-27T12:54:37;2.13;;;0.70;;
13085;SDS011;6609;49.882;8.664;2022-09-27T12:57:22;1.13;;;0.63;;
13085;SDS011;6609;49.882;8.664;2022-09-27T13:00:02;2.33;;;0.90;;
13085;SDS011;6609;49.882;8.664;2022-09-27T13:08:46;1.37;;;0.60;;
13085;SDS011;6609;49.882;8.664;2022-09-27T13:11:39;1.60;;;0.57;;
13085;SDS011;6609;49.882;8.664;2022-09-27T13:14:13;1.83;;;0.90;;
13085;SDS011;6609;49.882;8.664;2022-09-27T13:16:44;0.97;;;0.80;;
13085;SDS011;6609;49.882;8.664;2022-09-27T13:19:35;1.50;;;0.83;;
13085;SDS011;6609;49.882;8.664;2022-09-27T13:22:06;1.87;;;0.87;;
13085;SDS011;6609;49.882;8.664;2022-09-27T13:24:42;1.20;;;0.70;;
13085;SDS011;6609;49.882;8.664;2022-09-27T13:36:19;2.10;;;0.60;;
13085;SDS011;6609;49.882;8.664;2022-09-27T13:38:56;1.43;;;0.60;;
13085;SDS011;6609;49.882;8.664;2022-09-27T13:41:34;0.80;;;0.53;;
13085;SDS011;6609;49.882;8.664;2022-09-27T13:44:05;0.63;;;0.43;;
13085;SDS011;6609;49.882;8.664;2022-09-27T13:46:44;1.97;;;0.50;;
13085;SDS011;6609;49.882;8.664;2022-09-27T13:49:16;0.83;;;0.40;;
13085;SDS011;6609;49.882;8.664;2022-09-27T13:51:48;1.30;;;0.40;;
13085;SDS011;6609;49.882;8.664;2022-09-27T14:00:19;1.17;;;0.70;;
13085;SDS011;6609;49.882;8.664;2022-09-27T14:02:54;1.03;;;0.60;;
13085;SDS011;6609;49.882;8.664;2022-09-27T14:05:26;0.63;;;0.60;;
13085;SDS011;6609;49.882;8.664;2022-09-27T14:07:57;1.30;;;0.63;;
13085;SDS011;6609;49.882;8.664;2022-09-27T14:10:26;3.83;;;0.70;;
13085;SDS011;6609;49.882;8.664;2022-09-27T14:12:56;0.97;;;0.60;;
13085;SDS011;6609;49.882;8.664;2022-09-27T14:15:26;0.87;;;0.60;;
13085;SDS011;6609;49.882;8.664;2022-09-27T14:17:53;1.03;;;0.77;;
13085;SDS011;6609;49.882;8.664;2022-09-27T14:20:31;0.63;;;0.47;;
13085;SDS011;6609;49.882;8.664;2022-09-27T14:22:58;1.80;;;0.50;;
13085;SDS011;6609;49.882;8.664;2022-09-27T14:25:26;0.73;;;0.40;;
13085;SDS011;6609;49.882;8.664;2022-09-27T14:27:53;1.73;;;0.60;;
13085;SDS011;6609;49.882;8.664;2022-09-27T14:30:24;0.77;;;0.50;;
13085;SDS011;6609;49.882;8.664;2022-09-27T14:32:53;0.70;;;0.60;;
13085;SDS011;6609;49.882;8.664;2022-09-27T14:35:22;1.97;;;0.60;;
13085;SDS011;6609;49.882;8.664;2022-09-27T14:38:14;1.93;;;0.67;;
13085;SDS011;6609;49.882;8.664;2022-09-27T14:40:53;1.40;;;0.37;;
13085;SDS011;6609;49.882;8.664;2022-09-27T14:43:23;0.40;;;0.40;;
13085;SDS011;6609;49.882;8.664;2022-09-27T14:45:52;0.60;;;0.60;;
13085;SDS011;6609;49.882;8.664;2022-09-27T14:48:25;2.00;;;1.17;;
13085;SDS011;6609;49.882;8.664;2022-09-27T14:50:55;0.53;;;0.50;;
13085;SDS011;6609;49.882;8.664;2022-09-27T14:53:25;0.80;;;0.70;;
13085;SDS011;6609;49.882;8.664;2022-09-27T14:55:53;1.57;;;0.60;;
13085;SDS011;6609;49.882;8.664;2022-09-27T14:58:21;3.20;;;0.70;;
13085;SDS011;6609;49.882;8.664;2022-09-27T15:00:49;2.27;;;0.80;;
13085;SDS011;6609;49.882;8.664;2022-09-27T15:03:18;3.00;;;0.77;;
13085;SDS011;6609;49.882;8.664;2022-09-27T15:05:49;1.27;;;0.70;;
13085;SDS011;6609;49.882;8.664;2022-09-27T15:08:19;0.73;;;0.70;;
13085;SDS011;6609;49.882;8.664;2022-09-27T15:10:49;2.70;;;1.90;;
13085;SDS011;6609;49.882;8.664;2022-09-27T15:13:18;2.00;;;0.70;;
13085;SDS011;6609;49.882;8.664;2022-09-27T15:15:45;0.83;;;0.67;;
13085;SDS011;6609;49.882;8.664;2022-09-27T15:18:30;0.70;;;0.60;;
13085;SDS011;6609;49.882;8.664;2022-09-27T15:20:59;1.30;;;0.67;;
13085;SDS011;6609;49.882;8.664;2022-09-27T15:23:27;2.60;;;0.77;;
13085;SDS011;6609;49.882;8.664;2022-09-27T15:25:58;1.90;;;0.80;;
13085;SDS011;6609;49.882;8.664;2022-09-27T15:28:29;1.80;;;0.80;;
13085;SDS011;6609;49.882;8.664;2022-09-27T15:30:58;1.17;;;0.80;;
13085;SDS011;6609;49.882;8.664;2022-09-27T15:33:26;3.10;;;1.00;;
13085;SDS011;6609;49.882;8.664;2022-09-27T15:35:57;1.37;;;0.87;;
13085;SDS011;6609;49.882;8.664;2022-09-27T15:38:27;0.93;;;0.80;;
13085;SDS011;6609;49.882;8.664;2022-09-27T15:41:06;3.00;;;1.03;;
13085;SDS011;6609;49.882;8.664;2022-09-27T15:43:35;3.17;;;1.00;;
13085;SDS011;6609;49.882;8.664;2022-09-27T15:46:04;2.73;;;1.10;;
13085;SDS011;6609;49.882;8.664;2022-09-27T15:48:47;1.40;;;1.10;;
13085;SDS011;6609;49.882;8.664;2022-09-27T15:51:52;3.10;;;0.97;;
13085;SDS011;6609;49.882;8.664;2022-09-27T15:54:19;1.87;;;1.40;;
13085;SDS011;6609;49.882;8.664;2022-09-27T15:56:47;2.50;;;0.63;;